This is the latest recevied weather packets stored in our database for station/object DH1FR-13. If no packets are shown the sender has not sent any weather packets the latest 10 day(s).
| Time | Temp. | Humidity | Pressure | Rain* | Wind** | Luminosity | Snow |
|---|---|---|---|---|---|---|---|
| 1787486401 | 17.78° C | 62% | 1027 hPa | 0.25 mm | 0 m/s | - | - |
| 1787485801 | 17.78° C | 60% | 1027.1 hPa | 0.25 mm | 0 m/s | - | - |
| 1787485201 | 17.22° C | 61% | 1026.9 hPa | 0.25 mm | 0 m/s | - | - |
| 1787484600 | 18.89° C | 57% | 1027.1 hPa | 0.25 mm | 0 m/s | - | - |
| 1787484001 | 18.89° C | 58% | 1027 hPa | 0.25 mm | 0 m/s | - | - |
| 1787483401 | 17.22° C | 64% | 1027 hPa | 0.25 mm | 0 m/s | - | - |
| 1787482801 | 17.22° C | 61% | 1027 hPa | 0.25 mm | 0 m/s | - | - |
| 1787482201 | 16.67° C | 58% | 1027 hPa | 0.25 mm | 0 m/s | - | - |
| 1787481601 | 17.78° C | 55% | 1027.1 hPa | 0.25 mm | 0 m/s | - | - |
| 1787481001 | 17.22° C | 62% | 1027.1 hPa | 0.25 mm | 0 m/s | - | - |
| 1787480401 | 16.67° C | 62% | 1027.1 hPa | 0.25 mm | 0 m/s | - | - |
| 1787479801 | 17.22° C | 61% | 1026.9 hPa | 0.25 mm | 0 m/s | - | - |
| 1787479201 | 16.67° C | 63% | 1027 hPa | 0.25 mm | 0 m/s | - | - |
| 1787478601 | 16.67° C | 64% | 1026.9 hPa | 0.25 mm | 0 m/s | - | - |
| 1787478001 | 16.11° C | 67% | 1027 hPa | 0.25 mm | 0 m/s | - | - |
| 1787477400 | 15° C | 73% | 1027.1 hPa | 0.25 mm | 0 m/s | - | - |
| 1787476801 | 16.11° C | 69% | 1027.1 hPa | 0.25 mm | 0 m/s | - | - |
| 1787476201 | 15° C | 77% | 1026.9 hPa | 0.25 mm | 0 m/s | - | - |
| 1787475600 | 15.56° C | 75% | 1027 hPa | 0.25 mm | 0 m/s | - | - |
| 1787475000 | 15.56° C | 76% | 1027 hPa | 0.25 mm | 0 m/s | - | - |
| 1787474400 | 15° C | 77% | 1027 hPa | 0.25 mm | 0 m/s | - | - |
| 1787473800 | 15° C | 78% | 1026.8 hPa | 0.25 mm | 0 m/s | - | - |
| 1787473200 | 14.44° C | 80% | 1027.2 hPa | 0.25 mm | 0 m/s | - | - |
| 1787472600 | 14.44° C | 82% | 1027.2 hPa | 0.25 mm | 0 m/s | - | - |
| 1787472000 | 13.89° C | 83% | 1027.4 hPa | 0.25 mm | 0 m/s | - | - |
* Rain latest hour (hover to see other rain measurements)
** Current wind speed in m/s (hover to see current wind gust speed)